createdAt,value
2018-02-04T00:01:57.844Z,0.40
2018-02-04T00:04:24.768Z,0.60
2018-02-04T00:06:51.711Z,0.60
2018-02-04T00:09:18.654Z,0.50
2018-02-04T00:11:45.594Z,0.40
2018-02-04T00:14:12.469Z,0.50
2018-02-04T00:16:38.655Z,0.50
2018-02-04T00:19:04.844Z,0.50
2018-02-04T00:21:31.020Z,0.50
2018-02-04T00:23:57.939Z,0.50
2018-02-04T00:26:24.092Z,0.50
2018-02-04T00:28:50.289Z,0.50
2018-02-04T00:31:16.502Z,0.40
2018-02-04T00:33:42.689Z,0.40
2018-02-04T00:36:09.616Z,0.10
2018-02-04T00:38:35.846Z,0.10
2018-02-04T00:41:02.816Z,0.10
2018-02-04T00:43:29.694Z,0.10
2018-02-04T00:45:55.869Z,0.10
2018-02-04T00:48:22.783Z,0.00
2018-02-04T00:50:48.936Z,0.00
2018-02-04T00:53:16.662Z,-0.30
2018-02-04T00:55:42.856Z,-0.30
2018-02-04T00:58:09.019Z,-0.20
2018-02-04T01:00:35.294Z,-0.10
2018-02-04T01:03:02.195Z,-0.10
2018-02-04T01:05:28.329Z,-0.10
2018-02-04T01:07:54.503Z,-0.10
2018-02-04T01:10:21.415Z,-0.10
2018-02-04T01:12:47.580Z,-0.20
2018-02-04T01:15:14.513Z,-0.20
2018-02-04T01:17:41.455Z,-0.30
2018-02-04T01:20:08.432Z,-0.30
2018-02-04T01:22:34.604Z,-0.30
2018-02-04T01:25:01.531Z,-0.30
2018-02-04T01:27:27.734Z,-0.30
2018-02-04T01:29:53.951Z,-0.30
2018-02-04T01:32:20.155Z,-0.30
2018-02-04T01:34:47.079Z,-0.10
2018-02-04T01:37:13.989Z,0.00
2018-02-04T01:39:40.097Z,0.00
2018-02-04T01:42:06.242Z,0.00
2018-02-04T01:44:32.384Z,0.00
2018-02-04T01:46:58.517Z,-0.10
2018-02-04T01:49:24.695Z,-0.20
2018-02-04T01:51:50.832Z,-0.20
2018-02-04T01:54:17.036Z,-0.30
2018-02-04T01:56:43.969Z,-0.30
2018-02-04T01:59:10.890Z,-0.50
2018-02-04T02:01:37.013Z,-0.50
2018-02-04T02:04:03.211Z,-0.80
2018-02-04T02:06:29.373Z,-0.80
2018-02-04T02:08:55.561Z,-0.70
2018-02-04T02:11:21.685Z,-0.50
2018-02-04T02:13:47.854Z,-0.50
2018-02-04T02:16:14.726Z,-0.40
2018-02-04T02:18:41.608Z,-0.40
2018-02-04T02:21:07.806Z,-0.40
2018-02-04T02:23:33.959Z,-0.30
2018-02-04T02:26:00.150Z,-0.50
2018-02-04T02:28:27.041Z,-0.40
2018-02-04T02:30:53.182Z,-0.50
2018-02-04T02:33:19.395Z,-0.60
2018-02-04T02:35:45.582Z,-0.60
2018-02-04T02:38:11.755Z,-0.60
2018-02-04T02:40:37.959Z,-0.40
2018-02-04T02:43:04.143Z,-0.50
2018-02-04T02:45:31.060Z,-0.70
2018-02-04T02:47:57.203Z,-0.70
2018-02-04T02:50:24.111Z,-0.60
2018-02-04T02:52:50.319Z,-0.60
2018-02-04T02:55:16.478Z,-0.70
2018-02-04T02:57:42.620Z,-0.80
2018-02-04T03:00:08.754Z,-0.70
2018-02-04T03:02:34.878Z,-0.40
2018-02-04T03:05:01.053Z,-0.50
2018-02-04T03:07:27.186Z,-0.60
2018-02-04T03:09:53.378Z,-0.70
2018-02-04T03:12:20.330Z,-0.80
2018-02-04T03:14:47.227Z,-0.80
2018-02-04T03:17:13.390Z,-0.80
2018-02-04T03:19:39.565Z,-0.80
2018-02-04T03:22:05.744Z,-0.60
2018-02-04T03:24:32.671Z,-0.60
2018-02-04T03:26:59.556Z,-0.70
2018-02-04T03:29:25.716Z,-0.70
2018-02-04T03:31:51.884Z,-0.70
2018-02-04T03:34:25.739Z,-0.60
2018-02-04T03:36:51.888Z,-0.70
2018-02-04T03:39:18.079Z,-0.70
2018-02-04T03:41:44.273Z,-0.60
2018-02-04T03:44:11.220Z,-0.60
2018-02-04T03:46:38.182Z,-0.90
2018-02-04T03:49:04.418Z,-0.90
2018-02-04T03:51:30.636Z,-0.90
2018-02-04T03:53:56.838Z,-0.80
2018-02-04T03:56:23.788Z,-1.10
2018-02-04T03:58:50.725Z,-1.10
2018-02-04T04:01:16.900Z,-1.10
2018-02-04T04:03:43.116Z,-1.10
2018-02-04T04:06:09.304Z,-1.10
2018-02-04T04:08:35.495Z,-1.00
2018-02-04T04:11:01.686Z,-1.00
2018-02-04T04:13:28.626Z,-1.10
2018-02-04T04:15:55.534Z,-1.20
2018-02-04T04:18:21.729Z,-1.20
2018-02-04T04:20:47.986Z,-1.20
2018-02-04T04:23:14.203Z,-1.20
2018-02-04T04:25:40.327Z,-1.20
2018-02-04T04:28:06.524Z,-1.20
2018-02-04T04:30:32.690Z,-1.20
2018-02-04T04:32:58.814Z,-1.10
2018-02-04T04:35:24.959Z,-1.20
2018-02-04T04:37:51.122Z,-1.30
2018-02-04T04:40:18.017Z,-1.40
2018-02-04T04:42:44.169Z,-1.40
2018-02-04T04:45:11.094Z,-1.20
2018-02-04T04:47:37.224Z,-1.20
2018-02-04T04:50:03.415Z,-1.00
2018-02-04T04:52:29.657Z,-0.90
2018-02-04T04:54:55.781Z,-1.10
2018-02-04T04:57:21.943Z,-1.00
2018-02-04T04:59:48.816Z,-1.10
2018-02-04T05:02:15.732Z,-1.10
2018-02-04T05:04:42.641Z,-1.00
2018-02-04T05:07:08.758Z,-1.10
2018-02-04T05:09:34.917Z,-1.10
2018-02-04T05:12:01.048Z,-1.10
2018-02-04T05:14:27.210Z,-1.00
2018-02-04T05:16:54.087Z,-1.20
2018-02-04T05:19:20.268Z,-1.20
2018-02-04T05:21:47.204Z,-1.30
2018-02-04T05:24:21.104Z,-1.40
2018-02-04T05:26:47.305Z,-1.40
2018-02-04T05:29:13.422Z,-1.30
2018-02-04T05:31:39.611Z,-1.30
2018-02-04T05:34:06.531Z,-1.40
2018-02-04T05:36:33.423Z,-1.50
2018-02-04T05:38:59.614Z,-1.50
2018-02-04T05:41:26.563Z,-1.60
2018-02-04T05:43:53.477Z,-1.60
2018-02-04T05:46:19.646Z,-1.60
2018-02-04T05:48:46.612Z,-1.60
2018-02-04T05:51:12.867Z,-1.60
2018-02-04T05:53:39.006Z,-1.60
2018-02-04T05:56:05.153Z,-1.50
2018-02-04T05:58:32.041Z,-1.20
2018-02-04T06:00:58.175Z,-1.30
2018-02-04T06:03:24.308Z,-1.30
2018-02-04T06:05:50.436Z,-1.30
2018-02-04T06:08:16.623Z,-1.30
2018-02-04T06:10:43.502Z,-1.40
2018-02-04T06:13:09.620Z,-1.40
2018-02-04T06:15:35.792Z,-1.30
2018-02-04T06:18:06.601Z,-1.30
2018-02-04T06:20:32.999Z,-1.30
2018-02-04T06:23:00.011Z,-1.40
2018-02-04T06:25:38.434Z,-1.40
2018-02-04T06:28:07.883Z,-1.20
2018-02-04T06:30:34.077Z,-1.30
2018-02-04T06:33:00.998Z,-1.20
2018-02-04T06:35:27.164Z,-1.30
2018-02-04T06:37:53.312Z,-1.40
2018-02-04T06:40:19.497Z,-1.30
2018-02-04T06:42:46.383Z,-0.90
2018-02-04T06:45:12.542Z,-0.90
2018-02-04T06:47:38.695Z,-0.80
2018-02-04T06:50:05.593Z,-0.70
2018-02-04T06:52:31.746Z,-0.70
2018-02-04T06:54:57.886Z,-0.80
2018-02-04T06:57:24.038Z,-0.90
2018-02-04T06:59:50.229Z,-0.90
2018-02-04T07:02:16.353Z,-1.00
2018-02-04T07:04:42.535Z,-1.00
2018-02-04T07:09:59.416Z,-0.90
2018-02-04T07:12:25.588Z,-0.80
2018-02-04T07:14:51.731Z,-0.90
2018-02-04T07:17:17.881Z,-0.80
2018-02-04T07:19:44.062Z,-0.80
2018-02-04T07:22:10.247Z,-0.80
2018-02-04T07:24:36.377Z,-0.70
2018-02-04T07:27:02.581Z,-0.80
2018-02-04T07:29:28.797Z,-1.00
2018-02-04T07:31:54.966Z,-0.90
2018-02-04T07:34:21.877Z,-0.80
2018-02-04T07:36:48.008Z,-0.80
2018-02-04T07:39:14.202Z,-0.90
2018-02-04T07:41:40.390Z,-1.10
2018-02-04T07:44:07.330Z,-1.00
2018-02-04T07:46:34.272Z,-0.90
2018-02-04T07:49:00.422Z,-0.90
2018-02-04T07:51:27.381Z,-1.20
2018-02-04T07:53:53.563Z,-1.20
2018-02-04T07:56:19.721Z,-1.20
2018-02-04T07:58:45.906Z,-1.20
2018-02-04T08:01:12.079Z,-1.10
2018-02-04T08:03:38.240Z,-1.10
2018-02-04T08:06:04.409Z,-1.00
2018-02-04T08:14:49.332Z,-1.10
2018-02-04T08:17:27.050Z,-1.10
2018-02-04T08:19:53.244Z,-1.10
2018-02-04T08:22:20.273Z,-0.90
2018-02-04T08:24:47.155Z,-0.80
2018-02-04T08:27:14.060Z,-0.80
2018-02-04T08:29:40.206Z,-0.80
2018-02-04T08:32:06.359Z,-0.60
2018-02-04T08:34:32.516Z,-0.50
2018-02-04T08:36:58.674Z,-0.60
2018-02-04T08:39:24.840Z,-0.60
2018-02-04T08:41:51.041Z,-0.60
2018-02-04T08:44:17.958Z,-0.70
2018-02-04T08:46:44.146Z,-0.70
2018-02-04T08:49:10.279Z,-0.70
2018-02-04T08:51:36.419Z,-0.70
2018-02-04T08:54:02.632Z,-0.50
2018-02-04T08:56:28.766Z,-0.40
2018-02-04T08:58:54.919Z,-0.20
2018-02-04T09:01:21.056Z,-0.10
2018-02-04T09:03:47.259Z,-0.10
2018-02-04T09:06:13.447Z,0.00
2018-02-04T09:08:39.625Z,0.10
2018-02-04T09:11:05.816Z,0.00
2018-02-04T09:13:31.949Z,-0.20
2018-02-04T09:15:58.102Z,0.00
2018-02-04T09:18:24.258Z,0.20
2018-02-04T09:20:51.162Z,0.30
2018-02-04T09:23:17.385Z,0.20
2018-02-04T09:25:43.578Z,0.40
2018-02-04T09:28:10.478Z,0.40
2018-02-04T09:30:36.654Z,0.40
2018-02-04T09:33:03.523Z,0.40
2018-02-04T09:35:29.661Z,0.30
2018-02-04T09:37:55.863Z,0.40
2018-02-04T09:40:22.022Z,0.60
2018-02-04T09:42:48.199Z,0.50
2018-02-04T09:45:15.077Z,0.90
2018-02-04T09:47:41.232Z,0.90
2018-02-04T09:50:07.421Z,1.10
2018-02-04T09:52:33.616Z,1.10
2018-02-04T09:55:00.494Z,0.90
2018-02-04T09:57:26.682Z,0.90
2018-02-04T09:59:53.618Z,0.80
2018-02-04T10:02:20.599Z,0.80
2018-02-04T10:04:46.759Z,0.90
2018-02-04T10:07:12.950Z,1.10
2018-02-04T10:09:39.115Z,1.20
2018-02-04T10:12:05.322Z,1.20
2018-02-04T10:14:31.471Z,1.30
2018-02-04T10:16:57.601Z,1.40
2018-02-04T10:19:23.727Z,1.40
2018-02-04T10:21:49.910Z,1.20
2018-02-04T10:24:16.042Z,1.50
2018-02-04T10:26:42.184Z,1.60
2018-02-04T10:29:08.332Z,1.90
2018-02-04T10:31:34.460Z,1.90
2018-02-04T10:34:00.751Z,1.90
2018-02-04T10:36:26.874Z,1.80
2018-02-04T10:38:53.043Z,1.70
2018-02-04T10:41:19.247Z,1.80
2018-02-04T10:43:45.483Z,1.70
2018-02-04T10:46:11.587Z,1.60
2018-02-04T10:48:37.778Z,1.50
2018-02-04T10:51:10.747Z,1.50
2018-02-04T10:53:36.967Z,1.40
2018-02-04T10:56:03.104Z,1.50
2018-02-04T10:58:29.247Z,1.60
2018-02-04T11:00:56.132Z,1.70
2018-02-04T11:03:22.323Z,1.60
2018-02-04T11:05:49.247Z,1.60
2018-02-04T11:08:16.143Z,1.80
2018-02-04T11:10:42.295Z,1.80
2018-02-04T11:13:08.454Z,1.70
2018-02-04T11:15:35.355Z,1.80
2018-02-04T11:18:01.560Z,1.80
2018-02-04T11:20:27.714Z,1.60
2018-02-04T11:22:53.890Z,1.70
2018-02-04T11:25:20.807Z,1.50
2018-02-04T11:27:46.987Z,1.50
2018-02-04T11:30:13.200Z,1.50
2018-02-04T11:32:39.422Z,1.60
2018-02-04T11:35:06.292Z,1.60
2018-02-04T11:37:32.515Z,1.60
2018-02-04T11:39:58.658Z,1.60
2018-02-04T11:42:24.849Z,1.70
2018-02-04T11:44:51.773Z,1.70
2018-02-04T11:47:18.694Z,1.80
2018-02-04T11:49:44.843Z,1.70
2018-02-04T11:52:11.770Z,1.80
2018-02-04T11:54:38.032Z,1.80
2018-02-04T11:57:05.003Z,2.00
2018-02-04T11:59:31.185Z,1.90
2018-02-04T12:01:58.128Z,2.20
2018-02-04T12:04:24.319Z,2.10
2018-02-04T12:06:50.526Z,2.30
2018-02-04T12:09:16.740Z,2.40
2018-02-04T12:11:43.679Z,2.60
2018-02-04T12:14:17.518Z,2.60
2018-02-04T12:16:43.665Z,2.60
2018-02-04T12:19:09.872Z,2.60
2018-02-04T12:21:36.127Z,2.50
2018-02-04T12:24:02.319Z,2.60
2018-02-04T12:26:28.467Z,2.80
2018-02-04T12:28:54.594Z,2.80
2018-02-04T12:31:21.598Z,3.00
2018-02-04T12:33:48.535Z,3.10
2018-02-04T12:36:15.420Z,3.10
2018-02-04T12:38:41.663Z,3.10
2018-02-04T12:41:07.876Z,3.10
2018-02-04T12:43:34.074Z,3.20
2018-02-04T12:46:01.017Z,3.40
2018-02-04T12:48:27.930Z,3.40
2018-02-04T12:50:54.983Z,3.40
2018-02-04T12:53:21.123Z,3.40
2018-02-04T12:55:48.078Z,3.40
2018-02-04T12:58:14.948Z,3.50
2018-02-04T13:00:41.085Z,3.50
2018-02-04T13:03:07.269Z,3.70
2018-02-04T13:05:34.131Z,4.80
2018-02-04T13:08:01.043Z,5.10
2018-02-04T13:10:27.970Z,5.20
2018-02-04T13:12:54.248Z,5.20
2018-02-04T13:15:20.442Z,5.50
2018-02-04T13:17:46.643Z,5.30
2018-02-04T13:20:12.830Z,5.10
2018-02-04T13:22:39.738Z,4.60
2018-02-04T13:25:05.868Z,4.60
2018-02-04T13:27:32.063Z,4.40
2018-02-04T13:29:58.207Z,4.30
2018-02-04T13:32:24.393Z,4.50
2018-02-04T13:34:50.557Z,4.50
2018-02-04T13:37:16.799Z,4.50
2018-02-04T13:39:43.690Z,4.80
2018-02-04T13:42:09.911Z,4.70
2018-02-04T13:44:36.040Z,4.80
2018-02-04T13:47:02.222Z,4.70
2018-02-04T13:49:28.359Z,4.60
2018-02-04T13:51:54.474Z,4.40
2018-02-04T13:54:20.724Z,4.30
2018-02-04T13:56:47.658Z,4.00
2018-02-04T13:59:13.842Z,4.00
2018-02-04T14:01:39.979Z,3.80
2018-02-04T14:04:06.142Z,3.80
2018-02-04T14:06:32.323Z,4.00
2018-02-04T14:08:58.514Z,4.00
2018-02-04T14:11:25.442Z,5.00
2018-02-04T14:13:52.439Z,6.90
2018-02-04T14:16:18.599Z,6.90
2018-02-04T14:18:44.738Z,8.20
2018-02-04T14:21:11.617Z,9.00
2018-02-04T14:23:37.777Z,9.00
2018-02-04T14:26:03.932Z,9.50
2018-02-04T14:28:30.154Z,9.60
2018-02-04T14:30:56.337Z,9.70
2018-02-04T14:33:22.556Z,9.70
2018-02-04T14:35:48.744Z,9.60
2018-02-04T14:38:14.883Z,9.40
2018-02-04T14:40:41.766Z,6.90
2018-02-04T14:43:07.978Z,6.90
2018-02-04T14:45:34.104Z,6.00
2018-02-04T14:48:00.291Z,5.60
2018-02-04T14:50:26.482Z,5.00
2018-02-04T14:52:52.644Z,4.70
2018-02-04T14:55:18.829Z,4.70
2018-02-04T14:57:45.017Z,4.50
2018-02-04T15:00:11.992Z,4.10
2018-02-04T15:02:38.242Z,4.10
2018-02-04T15:05:04.422Z,4.00
2018-02-04T15:07:31.360Z,3.90
2018-02-04T15:09:57.509Z,3.90
2018-02-04T15:12:24.518Z,3.80
2018-02-04T15:14:51.455Z,3.80
2018-02-04T15:17:17.652Z,3.80
2018-02-04T15:19:43.869Z,3.80
2018-02-04T15:22:10.009Z,3.70
2018-02-04T15:24:36.261Z,3.60
2018-02-04T15:27:02.551Z,3.70
2018-02-04T15:29:28.769Z,3.60
2018-02-04T15:31:54.984Z,3.60
2018-02-04T15:34:21.896Z,3.60
2018-02-04T15:36:48.078Z,3.50
2018-02-04T15:39:14.301Z,3.40
2018-02-04T15:41:40.443Z,3.40
2018-02-04T15:44:06.631Z,3.40
2018-02-04T15:46:33.570Z,3.20
2018-02-04T15:49:00.530Z,3.20
2018-02-04T15:51:27.514Z,3.20
2018-02-04T15:53:53.702Z,3.20
2018-02-04T15:56:20.710Z,2.90
2018-02-04T15:58:46.869Z,2.90
2018-02-04T16:01:13.827Z,2.90
2018-02-04T16:03:40.799Z,2.80
2018-02-04T16:06:07.080Z,2.80
2018-02-04T16:08:33.258Z,2.80
2018-02-04T16:10:59.522Z,2.80
2018-02-04T16:13:26.488Z,2.70
2018-02-04T16:15:53.438Z,2.70
2018-02-04T16:18:20.403Z,2.70
2018-02-04T16:20:47.346Z,2.60
2018-02-04T16:23:13.656Z,2.60
2018-02-04T16:25:40.576Z,2.60
2018-02-04T16:28:06.806Z,2.60
2018-02-04T16:30:33.050Z,2.50
2018-02-04T16:32:59.242Z,2.60
2018-02-04T16:35:25.471Z,2.60
2018-02-04T16:37:51.612Z,2.60
2018-02-04T16:40:17.850Z,2.60
2018-02-04T16:42:44.131Z,2.60
2018-02-04T16:45:10.354Z,2.60
2018-02-04T16:47:36.589Z,2.60
2018-02-04T16:50:02.842Z,2.60
2018-02-04T16:52:29.068Z,2.60
2018-02-04T16:54:55.348Z,2.50
2018-02-04T16:57:22.301Z,2.50
2018-02-04T16:59:48.566Z,2.50
2018-02-04T17:02:14.741Z,2.50
2018-02-04T17:04:41.006Z,2.60
2018-02-04T17:07:07.239Z,2.60
2018-02-04T17:09:33.468Z,2.40
2018-02-04T17:11:59.710Z,2.30
2018-02-04T17:14:25.915Z,2.20
2018-02-04T17:16:52.108Z,2.30
2018-02-04T17:19:18.296Z,2.40
2018-02-04T17:21:44.454Z,2.30
2018-02-04T17:24:11.411Z,2.30
2018-02-04T17:26:38.338Z,2.30
2018-02-04T17:29:05.275Z,2.30
2018-02-04T17:31:31.430Z,2.30
2018-02-04T17:33:57.576Z,2.20
2018-02-04T17:36:23.767Z,2.10
2018-02-04T17:38:50.749Z,2.10
2018-02-04T17:41:16.985Z,2.10
2018-02-04T17:43:43.157Z,2.10
2018-02-04T17:46:09.341Z,2.00
2018-02-04T17:48:35.605Z,1.90
2018-02-04T17:51:01.893Z,1.80
2018-02-04T17:53:28.112Z,1.70
2018-02-04T17:55:54.303Z,1.50
2018-02-04T17:58:20.533Z,1.40
2018-02-04T18:00:47.499Z,1.40
2018-02-04T18:03:13.924Z,1.40
2018-02-04T18:05:40.924Z,1.50
2018-02-04T18:08:07.150Z,1.60
2018-02-04T18:10:33.350Z,1.50
2018-02-04T18:13:00.367Z,1.50
2018-02-04T18:15:26.530Z,1.50
2018-02-04T18:17:52.706Z,1.60
2018-02-04T18:20:19.014Z,1.40
2018-02-04T18:22:45.282Z,1.30
2018-02-04T18:25:12.209Z,1.30
2018-02-04T18:27:38.368Z,1.30
2018-02-04T18:30:05.282Z,1.10
2018-02-04T18:32:31.518Z,1.10
2018-02-04T18:34:57.783Z,1.00
2018-02-04T18:37:24.053Z,1.00
2018-02-04T18:39:50.338Z,0.80
2018-02-04T18:42:18.101Z,0.70
2018-02-04T18:44:45.066Z,0.70
2018-02-04T18:47:12.060Z,0.70
2018-02-04T18:49:38.250Z,0.80
2018-02-04T18:52:04.484Z,0.90
2018-02-04T18:54:30.687Z,0.90
2018-02-04T18:56:57.643Z,0.80
2018-02-04T18:59:23.850Z,0.80
2018-02-04T19:01:50.755Z,0.80
2018-02-04T19:04:17.876Z,0.80
2018-02-04T19:06:44.948Z,0.80
2018-02-04T19:09:11.177Z,0.80
2018-02-04T19:11:37.413Z,0.80
2018-02-04T19:14:03.593Z,0.70
2018-02-04T19:16:29.741Z,0.70
2018-02-04T19:18:55.954Z,0.70
2018-02-04T19:21:22.168Z,0.70
2018-02-04T19:23:48.477Z,0.80
2018-02-04T19:26:15.495Z,0.70
2018-02-04T19:28:41.651Z,0.70
2018-02-04T19:31:08.586Z,0.70
2018-02-04T19:33:35.526Z,0.70
2018-02-04T19:36:01.715Z,0.70
2018-02-04T19:38:27.969Z,0.70
2018-02-04T19:40:54.983Z,0.80
2018-02-04T19:43:21.336Z,0.80
2018-02-04T19:45:47.563Z,0.70
2018-02-04T19:48:13.751Z,0.60
2018-02-04T19:50:40.648Z,0.70
2018-02-04T19:53:06.853Z,0.60
2018-02-04T19:55:33.095Z,0.60
2018-02-04T19:57:59.366Z,0.60
2018-02-04T20:00:26.392Z,0.50
2018-02-04T20:02:52.606Z,0.50
2018-02-04T20:05:19.565Z,0.50
2018-02-04T20:07:46.543Z,0.30
2018-02-04T20:10:13.454Z,0.20
2018-02-04T20:12:39.610Z,0.20
2018-02-04T20:15:06.563Z,0.40
2018-02-04T20:17:32.760Z,0.40
2018-02-04T20:19:58.979Z,0.50
2018-02-04T20:22:25.175Z,0.50
2018-02-04T20:24:51.346Z,0.40
2018-02-04T20:27:17.526Z,0.20
2018-02-04T20:29:43.741Z,0.30
2018-02-04T20:32:22.339Z,0.30
2018-02-04T20:34:50.164Z,0.30
2018-02-04T20:37:16.404Z,0.30
2018-02-04T20:39:42.574Z,0.20
2018-02-04T20:42:08.722Z,0.30
2018-02-04T20:44:34.938Z,0.30
2018-02-04T20:47:01.135Z,0.40
2018-02-04T20:49:28.049Z,0.30
2018-02-04T20:51:54.206Z,0.30
2018-02-04T20:54:21.230Z,0.30
2018-02-04T20:56:47.491Z,0.30
2018-02-04T20:59:14.469Z,0.20
2018-02-04T21:01:41.517Z,0.20
2018-02-04T21:04:07.702Z,0.10
2018-02-04T21:06:33.819Z,0.10
2018-02-04T21:09:00.062Z,0.20
2018-02-04T21:11:26.978Z,0.20
2018-02-04T21:13:53.213Z,0.10
2018-02-04T21:16:19.388Z,0.20
2018-02-04T21:18:45.600Z,0.20
2018-02-04T21:21:12.590Z,0.30
2018-02-04T21:23:38.841Z,0.20
2018-02-04T21:26:05.934Z,0.20
2018-02-04T21:28:32.147Z,0.10
2018-02-04T21:30:59.134Z,0.10
2018-02-04T21:33:25.313Z,0.10
2018-02-04T21:35:52.339Z,0.20
2018-02-04T21:38:18.559Z,0.20
2018-02-04T21:40:44.795Z,0.20
2018-02-04T21:43:11.031Z,0.20
2018-02-04T21:45:37.245Z,0.40
2018-02-04T21:48:03.519Z,0.50
2018-02-04T21:50:29.780Z,0.60
2018-02-04T21:52:55.972Z,0.60
2018-02-04T21:55:22.207Z,0.60
2018-02-04T21:57:48.417Z,0.60
2018-02-04T22:00:15.354Z,0.60
2018-02-04T22:02:42.288Z,0.70
2018-02-04T22:05:09.208Z,0.70
2018-02-04T22:07:35.434Z,0.70
2018-02-04T22:10:01.719Z,0.70
2018-02-04T22:12:27.928Z,0.60
2018-02-04T22:14:54.817Z,0.60
2018-02-04T22:17:20.998Z,0.60
2018-02-04T22:19:47.967Z,0.60
2018-02-04T22:22:14.178Z,0.50
2018-02-04T22:24:41.125Z,0.60
2018-02-04T22:27:07.260Z,0.50
2018-02-04T22:29:34.209Z,0.50
2018-02-04T22:32:01.172Z,0.50
2018-02-04T22:34:27.419Z,0.50
2018-02-04T22:36:53.609Z,0.50
2018-02-04T22:39:20.539Z,0.60
2018-02-04T22:41:48.090Z,0.50
2018-02-04T22:44:15.839Z,0.50
2018-02-04T22:46:42.040Z,0.50
2018-02-04T22:49:08.293Z,0.40
2018-02-04T22:51:34.553Z,0.30
2018-02-04T22:54:01.474Z,0.20
2018-02-04T22:56:27.690Z,0.20
2018-02-04T22:58:53.903Z,0.20
2018-02-04T23:01:20.066Z,0.20
2018-02-04T23:03:47.007Z,0.00
2018-02-04T23:06:14.000Z,-0.10
2018-02-04T23:08:40.227Z,-0.10
2018-02-04T23:11:06.414Z,0.00
2018-02-04T23:13:33.386Z,0.00
2018-02-04T23:15:59.542Z,0.00
2018-02-04T23:18:25.666Z,0.10
2018-02-04T23:20:51.982Z,0.20
2018-02-04T23:23:18.180Z,0.10
2018-02-04T23:25:45.123Z,-0.10
2018-02-04T23:28:12.123Z,0.00
2018-02-04T23:30:38.256Z,0.00
2018-02-04T23:33:04.454Z,0.00
2018-02-04T23:35:30.638Z,0.20
2018-02-04T23:37:57.572Z,0.20
2018-02-04T23:40:23.708Z,0.10
2018-02-04T23:42:49.950Z,0.20
2018-02-04T23:45:16.849Z,0.40
2018-02-04T23:47:43.024Z,0.30
2018-02-04T23:50:09.986Z,0.40
2018-02-04T23:52:36.410Z,0.40
2018-02-04T23:55:03.354Z,0.50
2018-02-04T23:57:30.236Z,0.50
2018-02-04T23:59:56.447Z,0.50
